sensor_id;sensor_type;location;lat;lon;timestamp;P1;durP1;ratioP1;P2;durP2;ratioP2
31087;SDS011;17745;55.914;37.554;2023-07-31T00:35:51;8.10;;;3.62;;
31087;SDS011;17745;55.914;37.554;2023-07-31T00:39:00;7.82;;;4.50;;
31087;SDS011;17745;55.914;37.554;2023-07-31T00:42:41;8.18;;;4.28;;
31087;SDS011;17745;55.914;37.554;2023-07-31T00:46:16;8.98;;;4.30;;
31087;SDS011;17745;55.914;37.554;2023-07-31T00:49:47;9.55;;;4.20;;
31087;SDS011;17745;55.914;37.554;2023-07-31T01:07:52;13.88;;;4.37;;
31087;SDS011;17745;55.914;37.554;2023-07-31T01:11:25;16.95;;;4.95;;
31087;SDS011;17745;55.914;37.554;2023-07-31T01:14:36;11.38;;;4.35;;
31087;SDS011;17745;55.914;37.554;2023-07-31T01:17:54;12.18;;;4.53;;
31087;SDS011;17745;55.914;37.554;2023-07-31T01:31:35;9.50;;;4.47;;
31087;SDS011;17745;55.914;37.554;2023-07-31T01:38:38;11.12;;;4.00;;
31087;SDS011;17745;55.914;37.554;2023-07-31T05:46:11;8.50;;;2.72;;
31087;SDS011;17745;55.914;37.554;2023-07-31T05:49:49;11.07;;;3.67;;
31087;SDS011;17745;55.914;37.554;2023-07-31T05:53:19;8.35;;;2.90;;
31087;SDS011;17745;55.914;37.554;2023-07-31T13:07:43;4.80;;;2.15;;
31087;SDS011;17745;55.914;37.554;2023-07-31T13:11:09;11.48;;;2.60;;
31087;SDS011;17745;55.914;37.554;2023-07-31T13:21:10;10.32;;;2.20;;
31087;SDS011;17745;55.914;37.554;2023-07-31T17:55:30;7.57;;;3.72;;
31087;SDS011;17745;55.914;37.554;2023-07-31T17:58:49;9.50;;;3.95;;
31087;SDS011;17745;55.914;37.554;2023-07-31T18:04:40;8.77;;;4.75;;
31087;SDS011;17745;55.914;37.554;2023-07-31T18:07:21;11.05;;;4.85;;
31087;SDS011;17745;55.914;37.554;2023-07-31T18:10:01;11.32;;;5.30;;
31087;SDS011;17745;55.914;37.554;2023-07-31T18:12:41;10.20;;;4.12;;
31087;SDS011;17745;55.914;37.554;2023-07-31T18:15:18;17.08;;;4.55;;
31087;SDS011;17745;55.914;37.554;2023-07-31T18:18:04;9.05;;;3.97;;
31087;SDS011;17745;55.914;37.554;2023-07-31T18:21:32;12.73;;;4.43;;
31087;SDS011;17745;55.914;37.554;2023-07-31T18:25:07;16.62;;;4.45;;
31087;SDS011;17745;55.914;37.554;2023-07-31T18:28:11;11.52;;;5.25;;
31087;SDS011;17745;55.914;37.554;2023-07-31T18:34:14;7.15;;;4.10;;
31087;SDS011;17745;55.914;37.554;2023-07-31T18:36:54;9.68;;;4.65;;
31087;SDS011;17745;55.914;37.554;2023-07-31T18:39:37;18.33;;;5.45;;
31087;SDS011;17745;55.914;37.554;2023-07-31T18:45:56;15.05;;;6.12;;
31087;SDS011;17745;55.914;37.554;2023-07-31T18:48:52;24.23;;;6.32;;
31087;SDS011;17745;55.914;37.554;2023-07-31T18:54:55;18.50;;;7.32;;
31087;SDS011;17745;55.914;37.554;2023-07-31T18:58:03;18.65;;;6.45;;
31087;SDS011;17745;55.914;37.554;2023-07-31T19:01:22;12.93;;;5.62;;
31087;SDS011;17745;55.914;37.554;2023-07-31T19:03:58;20.15;;;5.90;;
31087;SDS011;17745;55.914;37.554;2023-07-31T19:06:48;26.08;;;5.82;;
31087;SDS011;17745;55.914;37.554;2023-07-31T19:09:30;16.42;;;6.20;;
31087;SDS011;17745;55.914;37.554;2023-07-31T19:12:14;12.25;;;5.97;;
31087;SDS011;17745;55.914;37.554;2023-07-31T19:15:18;19.80;;;6.35;;
31087;SDS011;17745;55.914;37.554;2023-07-31T19:17:58;20.60;;;6.03;;
31087;SDS011;17745;55.914;37.554;2023-07-31T19:20:34;18.17;;;6.60;;
31087;SDS011;17745;55.914;37.554;2023-07-31T19:23:09;15.93;;;5.72;;
31087;SDS011;17745;55.914;37.554;2023-07-31T19:25:44;15.77;;;6.45;;
31087;SDS011;17745;55.914;37.554;2023-07-31T19:43:07;21.92;;;6.85;;
31087;SDS011;17745;55.914;37.554;2023-07-31T19:46:05;20.65;;;6.05;;
31087;SDS011;17745;55.914;37.554;2023-07-31T19:48:38;19.08;;;6.22;;
31087;SDS011;17745;55.914;37.554;2023-07-31T19:51:13;20.03;;;7.70;;
31087;SDS011;17745;55.914;37.554;2023-07-31T19:53:44;21.30;;;8.10;;
31087;SDS011;17745;55.914;37.554;2023-07-31T19:56:16;15.90;;;6.93;;
31087;SDS011;17745;55.914;37.554;2023-07-31T19:58:56;26.27;;;7.57;;
31087;SDS011;17745;55.914;37.554;2023-07-31T20:01:27;16.23;;;7.15;;
31087;SDS011;17745;55.914;37.554;2023-07-31T20:04:07;16.33;;;6.78;;
31087;SDS011;17745;55.914;37.554;2023-07-31T20:06:53;18.33;;;7.60;;
31087;SDS011;17745;55.914;37.554;2023-07-31T20:09:57;17.23;;;7.35;;
31087;SDS011;17745;55.914;37.554;2023-07-31T20:12:36;19.70;;;6.40;;
31087;SDS011;17745;55.914;37.554;2023-07-31T20:15:54;22.42;;;7.30;;
31087;SDS011;17745;55.914;37.554;2023-07-31T20:18:44;18.10;;;8.13;;
31087;SDS011;17745;55.914;37.554;2023-07-31T20:21:31;27.05;;;7.87;;
31087;SDS011;17745;55.914;37.554;2023-07-31T20:24:08;17.77;;;6.93;;
31087;SDS011;17745;55.914;37.554;2023-07-31T20:26:48;24.30;;;7.60;;
31087;SDS011;17745;55.914;37.554;2023-07-31T20:44:03;18.05;;;6.72;;
31087;SDS011;17745;55.914;37.554;2023-07-31T20:47:40;20.10;;;6.55;;
31087;SDS011;17745;55.914;37.554;2023-07-31T20:50:41;16.40;;;6.80;;
31087;SDS011;17745;55.914;37.554;2023-07-31T20:53:26;19.90;;;6.37;;
31087;SDS011;17745;55.914;37.554;2023-07-31T20:56:02;19.08;;;6.32;;
31087;SDS011;17745;55.914;37.554;2023-07-31T20:58:45;16.17;;;6.00;;
